createdAt,value
2018-12-02T00:01:08.445Z,55.70
2018-12-02T00:04:14.382Z,55.90
2018-12-02T00:07:09.203Z,55.90
2018-12-02T00:10:05.595Z,55.90
2018-12-02T00:13:01.886Z,55.90
2018-12-02T00:15:58.139Z,56.10
2018-12-02T00:18:54.886Z,56.00
2018-12-02T00:21:51.216Z,56.10
2018-12-02T00:24:47.461Z,56.00
2018-12-02T00:27:44.512Z,56.10
2018-12-02T00:30:40.852Z,56.10
2018-12-02T00:33:37.354Z,56.20
2018-12-02T00:36:39.296Z,56.20
2018-12-02T00:39:35.777Z,56.10
2018-12-02T00:42:32.124Z,56.10
2018-12-02T00:45:32.219Z,56.20
2018-12-02T00:48:28.653Z,55.70
2018-12-02T00:51:25.631Z,56.30
2018-12-02T00:54:21.791Z,56.30
2018-12-02T00:57:18.892Z,56.20
2018-12-02T01:00:17.647Z,56.20
2018-12-02T01:03:15.126Z,56.30
2018-12-02T01:06:11.344Z,56.40
2018-12-02T01:09:07.940Z,56.40
2018-12-02T01:12:04.685Z,56.40
2018-12-02T01:15:01.929Z,56.30
2018-12-02T01:17:58.283Z,56.40
2018-12-02T01:20:54.689Z,56.40
2018-12-02T01:23:51.082Z,56.50
2018-12-02T01:26:47.442Z,56.60
2018-12-02T01:29:43.834Z,56.60
2018-12-02T01:32:42.716Z,56.60
2018-12-02T01:35:39.737Z,56.50
2018-12-02T01:38:36.254Z,56.50
2018-12-02T01:41:32.887Z,56.50
2018-12-02T01:44:29.474Z,56.40
2018-12-02T01:47:26.364Z,56.40
2018-12-02T01:50:29.464Z,56.30
2018-12-02T01:53:25.909Z,56.30
2018-12-02T01:56:22.366Z,56.30
2018-12-02T01:59:18.989Z,56.30
2018-12-02T02:02:15.879Z,56.30
2018-12-02T02:05:13.371Z,56.40
2018-12-02T02:08:10.199Z,56.50
2018-12-02T02:11:06.638Z,56.40
2018-12-02T02:14:03.214Z,56.50
2018-12-02T02:16:59.331Z,56.50
2018-12-02T02:19:58.199Z,56.60
2018-12-02T02:22:54.557Z,56.60
2018-12-02T02:25:52.214Z,56.60
2018-12-02T02:28:51.461Z,56.80
2018-12-02T02:31:48.297Z,56.70
2018-12-02T02:34:44.739Z,56.70
2018-12-02T02:37:41.457Z,56.80
2018-12-02T02:40:38.336Z,56.80
2018-12-02T02:43:34.362Z,56.80
2018-12-02T02:46:31.705Z,56.80
2018-12-02T02:49:28.274Z,56.90
2018-12-02T02:52:24.224Z,56.80
2018-12-02T02:55:21.096Z,56.80
2018-12-02T02:58:17.838Z,57.00
2018-12-02T03:01:14.629Z,56.80
2018-12-02T03:04:11.380Z,56.90
2018-12-02T03:07:08.139Z,56.80
2018-12-02T03:10:04.909Z,56.80
2018-12-02T03:13:01.571Z,56.80
2018-12-02T03:15:58.476Z,56.80
2018-12-02T03:19:01.309Z,56.80
2018-12-02T03:21:58.005Z,56.90
2018-12-02T03:24:54.695Z,56.90
2018-12-02T03:27:51.014Z,56.80
2018-12-02T03:30:47.721Z,56.80
2018-12-02T03:33:44.314Z,56.80
2018-12-02T03:36:41.361Z,56.70
2018-12-02T03:39:37.899Z,56.50
2018-12-02T03:42:34.240Z,56.50
2018-12-02T03:45:33.993Z,56.40
2018-12-02T03:48:30.149Z,56.30
2018-12-02T03:51:29.374Z,56.10
2018-12-02T03:54:25.509Z,55.90
2018-12-02T03:57:22.230Z,55.90
2018-12-02T04:00:29.139Z,56.00
2018-12-02T04:03:25.915Z,56.10
2018-12-02T04:06:22.244Z,56.10
2018-12-02T04:09:18.419Z,56.20
2018-12-02T04:12:15.289Z,56.90
2018-12-02T04:15:12.996Z,56.40
2018-12-02T04:18:08.965Z,56.40
2018-12-02T04:21:05.345Z,56.50
2018-12-02T04:24:01.580Z,56.40
2018-12-02T04:26:58.068Z,56.30
2018-12-02T04:29:55.000Z,56.30
2018-12-02T04:32:55.567Z,56.30
2018-12-02T04:35:52.084Z,56.40
2018-12-02T04:38:48.158Z,56.50
2018-12-02T04:41:44.846Z,56.30
2018-12-02T04:44:41.108Z,56.30
2018-12-02T04:47:37.773Z,56.00
2018-12-02T04:50:34.208Z,55.90
2018-12-02T04:53:30.325Z,55.90
2018-12-02T04:56:26.647Z,55.80
2018-12-02T04:59:26.429Z,55.50
2018-12-02T05:02:23.062Z,55.60
2018-12-02T05:05:22.397Z,55.30
2018-12-02T05:08:18.828Z,55.20
2018-12-02T05:11:15.070Z,55.10
2018-12-02T05:14:11.686Z,55.00
2018-12-02T05:17:07.833Z,55.00
2018-12-02T05:20:05.219Z,55.00
2018-12-02T05:23:02.769Z,54.90
2018-12-02T05:25:58.764Z,54.80
2018-12-02T05:28:55.930Z,54.60
2018-12-02T05:31:52.018Z,54.40
2018-12-02T05:34:48.463Z,54.30
2018-12-02T05:37:44.508Z,54.10
2018-12-02T05:40:43.206Z,54.10
2018-12-02T05:43:39.795Z,54.20
2018-12-02T05:46:36.194Z,53.90
2018-12-02T05:49:32.584Z,53.60
2018-12-02T05:52:29.058Z,53.70
2018-12-02T05:55:30.004Z,53.60
2018-12-02T05:58:26.261Z,53.50
2018-12-02T06:01:22.423Z,53.30
2018-12-02T06:04:18.923Z,53.30
2018-12-02T06:07:15.072Z,53.30
2018-12-02T06:10:16.813Z,53.30
2018-12-02T06:13:13.471Z,53.10
2018-12-02T06:16:13.728Z,53.10
2018-12-02T06:19:10.356Z,53.00
2018-12-02T06:22:06.714Z,52.90
2018-12-02T06:25:03.422Z,53.10
2018-12-02T06:27:59.830Z,52.90
2018-12-02T06:30:56.260Z,52.50
2018-12-02T06:33:52.954Z,52.50
2018-12-02T06:36:52.882Z,52.60
2018-12-02T06:39:49.559Z,52.30
2018-12-02T06:42:46.652Z,52.00
2018-12-02T06:45:42.967Z,51.90
2018-12-02T06:48:43.235Z,51.60
2018-12-02T06:51:39.471Z,51.50
2018-12-02T06:54:36.299Z,51.50
2018-12-02T06:57:34.461Z,51.20
2018-12-02T07:00:57.687Z,50.90
2018-12-02T07:04:30.003Z,50.90
2018-12-02T07:07:27.275Z,50.50
2018-12-02T07:10:23.978Z,50.40
2018-12-02T07:13:20.597Z,49.90
2018-12-02T07:16:16.837Z,49.30
2018-12-02T07:19:15.999Z,49.40
2018-12-02T07:22:33.787Z,49.40
2018-12-02T07:25:31.448Z,49.10
2018-12-02T07:28:27.614Z,48.90
2018-12-02T07:31:26.739Z,48.90
2018-12-02T07:34:41.517Z,48.60
2018-12-02T07:37:38.752Z,48.70
2018-12-02T07:40:40.024Z,48.60
2018-12-02T07:43:36.568Z,48.50
2018-12-02T07:46:32.696Z,48.30
2018-12-02T07:49:28.942Z,48.30
2018-12-02T07:52:25.655Z,48.20
2018-12-02T07:55:22.343Z,48.20
2018-12-02T07:58:21.764Z,48.00
2018-12-02T08:01:18.162Z,47.50
2018-12-02T08:04:20.052Z,47.40
2018-12-02T08:07:11.985Z,47.40
2018-12-02T08:10:13.653Z,47.40
2018-12-02T08:13:10.378Z,47.20
2018-12-02T08:16:08.003Z,47.30
2018-12-02T08:19:14.701Z,47.70
2018-12-02T08:22:12.159Z,47.90
2018-12-02T08:25:08.823Z,47.60
2018-12-02T08:28:06.176Z,47.30
2018-12-02T08:31:03.966Z,47.20
2018-12-02T08:34:03.166Z,46.70
2018-12-02T08:37:00.511Z,47.70
2018-12-02T08:39:57.820Z,47.70
2018-12-02T08:42:54.648Z,47.80
2018-12-02T08:45:52.086Z,48.00
2018-12-02T08:48:49.066Z,47.90
2018-12-02T08:51:46.528Z,47.90
2018-12-02T08:54:43.537Z,47.60
2018-12-02T08:57:41.354Z,47.20
2018-12-02T09:00:39.354Z,47.00
2018-12-02T09:03:36.714Z,47.20
2018-12-02T09:06:34.701Z,47.10
2018-12-02T09:09:31.947Z,47.00
2018-12-02T09:12:29.748Z,46.80
2018-12-02T09:15:27.071Z,46.80
2018-12-02T09:18:24.010Z,46.70
2018-12-02T09:21:24.149Z,46.90
2018-12-02T09:24:23.513Z,47.20
2018-12-02T09:27:22.097Z,47.30
2018-12-02T09:30:43.530Z,47.20
2018-12-02T09:33:40.613Z,47.20
2018-12-02T09:36:37.613Z,47.20
2018-12-02T09:39:35.573Z,47.20
2018-12-02T09:42:32.909Z,47.00
2018-12-02T09:45:34.967Z,47.00
2018-12-02T09:48:29.395Z,46.60
2018-12-02T09:51:26.843Z,46.60
2018-12-02T09:54:23.878Z,47.10
2018-12-02T09:57:21.225Z,46.60
2018-12-02T10:00:25.404Z,46.40
2018-12-02T10:03:22.834Z,46.30
2018-12-02T10:06:19.990Z,46.40
2018-12-02T10:09:18.448Z,46.40
2018-12-02T10:12:15.556Z,46.40
2018-12-02T10:15:14.926Z,46.30
2018-12-02T10:18:12.631Z,46.10
2018-12-02T10:21:10.227Z,46.20
2018-12-02T10:24:07.272Z,46.40
2018-12-02T10:27:04.512Z,46.40
2018-12-02T10:30:01.274Z,46.60
2018-12-02T10:33:00.190Z,46.60
2018-12-02T10:35:57.242Z,46.40
2018-12-02T10:38:54.445Z,46.50
2018-12-02T10:41:54.065Z,46.70
2018-12-02T10:44:48.449Z,46.70
2018-12-02T10:47:45.352Z,46.50
2018-12-02T10:50:42.925Z,46.90
2018-12-02T10:53:39.807Z,47.10
2018-12-02T10:56:36.729Z,47.10
2018-12-02T10:59:33.633Z,47.00
2018-12-02T11:02:30.284Z,47.10
2018-12-02T11:05:27.207Z,47.30
2018-12-02T11:08:23.936Z,47.40
2018-12-02T11:11:25.716Z,47.50
2018-12-02T11:14:22.669Z,47.40
2018-12-02T11:17:19.664Z,47.40
2018-12-02T11:20:18.129Z,47.50
2018-12-02T11:23:15.549Z,47.50
2018-12-02T11:26:12.083Z,47.50
2018-12-02T11:29:11.704Z,47.70
2018-12-02T11:32:05.574Z,47.90
2018-12-02T11:35:01.915Z,47.90
2018-12-02T11:37:58.022Z,47.90
2018-12-02T11:40:54.548Z,47.90
2018-12-02T11:43:51.305Z,47.90
2018-12-02T11:46:47.857Z,48.00
2018-12-02T11:49:44.361Z,48.00
2018-12-02T11:52:44.316Z,48.00
2018-12-02T11:55:40.867Z,48.10
2018-12-02T11:58:37.614Z,48.00
2018-12-02T12:01:34.119Z,48.10
2018-12-02T12:04:31.181Z,48.20
2018-12-02T12:07:27.696Z,48.20
2018-12-02T12:10:28.042Z,48.30
2018-12-02T12:13:24.257Z,48.30
2018-12-02T12:16:21.487Z,48.50
2018-12-02T12:19:17.496Z,48.60
2018-12-02T12:22:14.034Z,48.50
2018-12-02T12:25:11.162Z,48.60
2018-12-02T12:28:07.450Z,48.60
2018-12-02T12:31:03.643Z,48.80
2018-12-02T12:33:59.708Z,48.90
2018-12-02T12:36:56.155Z,49.00
2018-12-02T12:39:52.811Z,49.10
2018-12-02T12:42:53.415Z,49.10
2018-12-02T12:45:49.587Z,49.20
2018-12-02T12:48:45.706Z,49.20
2018-12-02T12:51:41.543Z,49.20
2018-12-02T12:54:38.096Z,49.30
2018-12-02T12:57:37.389Z,49.40
2018-12-02T13:00:33.569Z,49.50
2018-12-02T13:03:29.812Z,49.50
2018-12-02T13:06:25.904Z,49.50
2018-12-02T13:09:21.817Z,49.60
2018-12-02T13:12:18.539Z,49.70
2018-12-02T13:15:25.067Z,49.70
2018-12-02T13:18:21.190Z,49.80
2018-12-02T13:21:18.400Z,49.80
2018-12-02T13:24:14.900Z,50.00
2018-12-02T13:27:11.632Z,50.10
2018-12-02T13:30:08.319Z,50.30
2018-12-02T13:33:05.087Z,50.40
2018-12-02T13:36:02.921Z,50.40
2018-12-02T13:38:59.654Z,50.30
2018-12-02T13:41:56.740Z,50.30
2018-12-02T13:44:53.615Z,50.30
2018-12-02T13:47:53.748Z,50.30
2018-12-02T13:50:50.391Z,50.20
2018-12-02T13:54:03.380Z,50.20
2018-12-02T13:56:59.946Z,50.30
2018-12-02T13:59:57.075Z,50.50
2018-12-02T14:03:01.178Z,50.40
2018-12-02T14:05:57.386Z,50.50
2018-12-02T14:08:54.665Z,50.60
2018-12-02T14:11:51.149Z,50.60
2018-12-02T14:14:49.299Z,50.60
2018-12-02T14:17:46.805Z,50.70
2018-12-02T14:20:43.476Z,50.70
2018-12-02T14:23:41.356Z,50.70
2018-12-02T14:26:37.988Z,50.70
2018-12-02T14:29:43.341Z,50.70
2018-12-02T14:32:40.010Z,50.70
2018-12-02T14:35:37.085Z,50.60
2018-12-02T14:38:34.115Z,50.70
2018-12-02T14:41:31.167Z,50.80
2018-12-02T14:44:28.383Z,50.80
2018-12-02T14:47:26.866Z,50.70
2018-12-02T14:50:23.852Z,50.60
2018-12-02T14:53:23.431Z,50.60
2018-12-02T14:56:20.431Z,50.50
2018-12-02T14:59:17.139Z,50.50
2018-12-02T15:02:13.982Z,50.60
2018-12-02T15:05:11.298Z,50.60
2018-12-02T15:08:07.792Z,50.70
2018-12-02T15:11:04.522Z,50.90
2018-12-02T15:14:01.127Z,51.10
2018-12-02T15:16:57.794Z,51.20
2018-12-02T15:19:54.773Z,51.20
2018-12-02T15:22:52.047Z,51.30
2018-12-02T15:25:48.386Z,51.30
2018-12-02T15:28:45.106Z,51.30
2018-12-02T15:31:41.516Z,51.40
2018-12-02T15:34:37.570Z,51.50
2018-12-02T15:37:33.969Z,51.60
2018-12-02T15:40:31.164Z,51.50
2018-12-02T15:43:30.498Z,51.50
2018-12-02T15:46:29.944Z,51.50
2018-12-02T15:49:26.198Z,51.40
2018-12-02T15:52:22.739Z,51.30
2018-12-02T15:55:33.209Z,51.20
2018-12-02T15:58:30.043Z,51.30
2018-12-02T16:01:27.172Z,51.30
2018-12-02T16:04:23.805Z,51.30
2018-12-02T16:07:20.263Z,51.30
2018-12-02T16:10:18.308Z,51.40
2018-12-02T16:13:16.126Z,51.40
2018-12-02T16:16:15.924Z,51.70
2018-12-02T16:19:12.690Z,51.60
2018-12-02T16:22:09.578Z,51.70
2018-12-02T16:25:05.938Z,51.80
2018-12-02T16:28:02.528Z,51.90
2018-12-02T16:31:00.086Z,52.00
2018-12-02T16:33:59.684Z,52.10
2018-12-02T16:36:56.150Z,52.00
2018-12-02T16:39:52.779Z,52.10
2018-12-02T16:42:51.830Z,52.20
2018-12-02T16:45:47.866Z,52.20
2018-12-02T16:48:43.630Z,52.30
2018-12-02T16:51:39.840Z,52.40
2018-12-02T16:54:36.284Z,52.30
2018-12-02T16:57:32.959Z,52.40
2018-12-02T17:00:35.196Z,52.50
2018-12-02T17:03:31.361Z,52.60
2018-12-02T17:06:27.654Z,52.50
2018-12-02T17:09:24.138Z,52.40
2018-12-02T17:12:21.284Z,52.40
2018-12-02T17:15:24.402Z,52.50
2018-12-02T17:18:20.797Z,52.40
2018-12-02T17:21:17.214Z,52.40
2018-12-02T17:24:14.625Z,52.30
2018-12-02T17:27:10.833Z,52.30
2018-12-02T17:30:07.734Z,52.10
2018-12-02T17:33:03.946Z,52.00
2018-12-02T17:35:59.974Z,51.80
2018-12-02T17:38:58.970Z,51.70
2018-12-02T17:41:58.281Z,51.60
2018-12-02T17:44:54.414Z,51.70
2018-12-02T17:47:51.095Z,51.70
2018-12-02T17:50:47.802Z,51.50
2018-12-02T17:53:49.585Z,51.30
2018-12-02T17:56:41.766Z,51.20
2018-12-02T17:59:37.858Z,51.20
2018-12-02T18:02:33.851Z,51.20
2018-12-02T18:05:44.164Z,51.20
2018-12-02T18:08:40.544Z,51.30
2018-12-02T18:11:36.581Z,51.20
2018-12-02T18:14:34.218Z,51.20
2018-12-02T18:17:31.378Z,50.70
2018-12-02T18:20:27.466Z,51.20
2018-12-02T18:23:23.447Z,51.30
2018-12-02T18:26:20.043Z,51.40
2018-12-02T18:29:16.623Z,51.60
2018-12-02T18:32:15.753Z,51.80
2018-12-02T18:35:50.116Z,51.80
2018-12-02T18:38:47.811Z,51.80
2018-12-02T18:41:45.992Z,51.90
2018-12-02T18:44:42.124Z,52.00
2018-12-02T18:47:38.483Z,51.90
2018-12-02T18:50:34.861Z,52.00
2018-12-02T18:53:31.956Z,52.10
2018-12-02T18:56:28.779Z,52.20
2018-12-02T18:59:25.555Z,52.20
2018-12-02T19:02:22.152Z,52.30
2018-12-02T19:05:18.744Z,52.30
2018-12-02T19:08:15.058Z,52.00
2018-12-02T19:11:11.821Z,52.40
2018-12-02T19:14:08.009Z,52.50
2018-12-02T19:17:04.160Z,52.60
2018-12-02T19:20:00.537Z,52.60
2018-12-02T19:22:58.759Z,52.60
2018-12-02T19:25:55.750Z,52.70
2018-12-02T19:28:51.886Z,52.80
2018-12-02T19:31:48.222Z,52.90
2018-12-02T19:34:44.765Z,53.00
2018-12-02T19:37:40.831Z,53.00
2018-12-02T19:40:38.000Z,53.10
2018-12-02T19:43:34.262Z,53.10
2018-12-02T19:46:30.154Z,53.10
2018-12-02T19:49:29.634Z,53.00
2018-12-02T19:52:25.983Z,53.00
2018-12-02T19:55:21.835Z,53.00
2018-12-02T19:58:19.537Z,52.90
2018-12-02T20:01:15.709Z,52.90
2018-12-02T20:04:11.914Z,52.90
2018-12-02T20:07:08.317Z,53.00
2018-12-02T20:10:04.689Z,53.10
2018-12-02T20:13:04.478Z,53.20
2018-12-02T20:16:25.439Z,53.30
2018-12-02T20:19:38.987Z,53.40
2018-12-02T20:22:35.523Z,53.30
2018-12-02T20:25:31.975Z,53.40
2018-12-02T20:28:32.972Z,53.40
2018-12-02T20:31:33.576Z,53.50
2018-12-02T20:34:29.511Z,53.50
2018-12-02T20:37:25.496Z,53.70
2018-12-02T20:40:22.938Z,53.80
2018-12-02T20:43:19.263Z,54.00
2018-12-02T20:46:15.288Z,54.00
2018-12-02T20:49:11.782Z,54.00
2018-12-02T20:52:08.500Z,54.00
2018-12-02T20:55:04.879Z,54.10
2018-12-02T20:58:05.751Z,54.10
2018-12-02T21:01:03.420Z,54.20
2018-12-02T21:03:59.865Z,54.20
2018-12-02T21:06:56.199Z,54.30
2018-12-02T21:09:52.418Z,54.40
2018-12-02T21:12:48.555Z,54.50
2018-12-02T21:15:44.930Z,54.60
2018-12-02T21:18:43.916Z,54.60
2018-12-02T21:21:40.062Z,54.70
2018-12-02T21:24:36.084Z,54.70
2018-12-02T21:27:32.435Z,54.80
2018-12-02T21:30:31.649Z,54.90
2018-12-02T21:33:28.206Z,54.90
2018-12-02T21:36:24.799Z,54.80
2018-12-02T21:39:21.132Z,54.90
2018-12-02T21:42:23.002Z,55.10
2018-12-02T21:45:22.761Z,55.20
2018-12-02T21:48:30.450Z,55.20
2018-12-02T21:51:26.736Z,55.20
2018-12-02T21:54:23.166Z,55.10
2018-12-02T21:57:19.444Z,55.10
2018-12-02T22:00:42.006Z,55.30
2018-12-02T22:03:38.132Z,55.10
2018-12-02T22:06:34.349Z,55.30
2018-12-02T22:09:34.207Z,55.40
2018-12-02T22:12:27.624Z,55.50
2018-12-02T22:15:24.472Z,55.80
2018-12-02T22:18:20.727Z,55.40
2018-12-02T22:21:20.132Z,55.40
2018-12-02T22:24:19.270Z,55.50
2018-12-02T22:27:15.378Z,55.50
2018-12-02T22:30:15.534Z,55.50
2018-12-02T22:33:12.796Z,55.50
2018-12-02T22:36:14.046Z,55.50
2018-12-02T22:39:08.702Z,55.50
2018-12-02T22:42:05.156Z,55.60
2018-12-02T22:45:01.380Z,55.70
2018-12-02T22:47:57.648Z,55.80
2018-12-02T22:50:53.935Z,55.90
2018-12-02T22:53:52.905Z,55.80
2018-12-02T22:56:49.000Z,55.90
2018-12-02T22:59:45.858Z,55.90
2018-12-02T23:02:58.491Z,55.40
2018-12-02T23:05:58.135Z,56.10
2018-12-02T23:08:54.806Z,56.10
2018-12-02T23:11:51.470Z,56.10
2018-12-02T23:14:51.282Z,56.10
2018-12-02T23:17:45.049Z,56.10
2018-12-02T23:20:41.029Z,56.20
2018-12-02T23:23:38.066Z,56.40
2018-12-02T23:26:34.369Z,56.40
2018-12-02T23:29:30.676Z,56.40
2018-12-02T23:32:27.065Z,56.50
2018-12-02T23:35:23.307Z,56.60
2018-12-02T23:38:19.553Z,56.70
2018-12-02T23:41:18.846Z,56.70
2018-12-02T23:44:15.207Z,56.70
2018-12-02T23:47:18.667Z,56.70
2018-12-02T23:50:21.779Z,56.80
2018-12-02T23:53:24.921Z,56.70
2018-12-02T23:56:18.131Z,56.60
2018-12-02T23:59:14.126Z,56.60
